Terminal Aerodrome Forecast
Issued by NWS

Home | Current Version | Previous Version | Text Only | Print | Product List | Glossary On
Versions: 1 2 3 4 5 6 7 8 9 10 11 12 13 14 15 16 17 18 19 20 21 22 23 24 25 26 27 28 29 30 31 32 33
000
FTUS45 KBYZ 250539
TAFLVM
TAF
KLVM 250539Z 2506/2606 09009KT P6SM -RA FEW008 BKN014
     FM251100 09009KT P6SM VCSH SCT010 BKN020
     FM251700 08008KT P6SM VCSH SCT030=

USA.gov is the U.S. government's official web portal to all federal, state and local government web resources and services.